Stevensville, MI

7:37 AM EST on December 06, 2016 (GMT -0500)
Stevensville, MI | | Change Station

Elev 633 ft 42.01 °N, 86.52 °W | Updated 6 seconds ago

Clear
Clear
31.1 °F
Feels Like 31 °F
N
0.0
Wind Variable Wind from ENE
Gusts 0.0 mph

Today
High -- | Low -- °F
--% Chance of Precip.
Yesterday
High -- | Low -- °F
Precip. -- in
Pressure 29.84 in
Visibility 5.0 miles
Clouds Clear
Windchill 31 °F
Dew Point 28 °F
Humidity 87%
Rainfall 0.00 in
Snow Depth Not available.
8:00 AM 5:14 PM
Waxing Crescent, 41% visible
METAR KBEH 061153Z AUTO 07005KT 5SM BR CLR M01/M03 A2982 RMK AO2 SLP103 T10061028 10000 21011 56025
Pressure 29.84 in
Visibility 5.0 miles
Clouds Clear
Windchill 31 °F
Dew Point 28 °F
Humidity 87%
Rainfall 0.00 in
Snow Depth Not available.
8:00 AM 5:14 PM
Waxing Crescent, 41% visible
METAR KBEH 061153Z AUTO 07005KT 5SM BR CLR M01/M03 A2982 RMK AO2 SLP103 T10061028 10000 21011 56025

10-Day Weather Forecast

Almanac

Astronomy

Dec. 06, 2016 Rise Set
Actual Time
Civil Twilight
Nautical Twilight
Astronomical Twilight
Moon
Length of Visible Light
Length of Day
Tomorrow will be .
, % of the Moon is Illuminated

Today's Extremes

State Highs State Lows

Community

WunderPhotos

Upload Photos

1,955,936 photos uploaded!

WunderBlog® & News

Nearby

Air Quality

  Air Quality AQ Index Pollutant
Not available.

Snow Depth

Station Depth Elevation

Earthquake Activity

City Distance Mag. Time & Date
Minimum magnitude displayed is 2.5.

Coastal Water Temperatures

Place Temperature

Stations

Nearby Weather Stations

Station Location Temp. Windchill Dew Point Humidity Wind Precip. Elev Updated Type
                   

Watches & Warnings

There are currently no watches in effect.